createdAt,value
2024-02-08T00:04:20.052Z,7.55
2024-02-08T00:09:22.290Z,3.65
2024-02-08T00:14:25.602Z,5.55
2024-02-08T00:19:27.802Z,4.82
2024-02-08T00:24:31.978Z,8.25
2024-02-08T00:29:34.260Z,5.00
2024-02-08T00:34:36.767Z,5.00
2024-02-08T00:39:45.028Z,6.05
2024-02-08T00:44:47.006Z,6.38
2024-02-08T00:49:49.580Z,5.60
2024-02-08T00:54:52.283Z,5.43
2024-02-08T00:59:54.200Z,6.05
2024-02-08T01:04:57.019Z,5.80
2024-02-08T01:10:00.375Z,7.28
2024-02-08T01:15:03.946Z,12.98
2024-02-08T01:20:08.349Z,4.60
2024-02-08T01:25:10.617Z,7.47
2024-02-08T01:30:15.145Z,3.97
2024-02-08T01:35:23.780Z,4.07
2024-02-08T01:40:27.671Z,4.72
2024-02-08T01:45:43.219Z,4.45
2024-02-08T01:50:59.884Z,5.30
2024-02-08T01:56:03.941Z,8.18
2024-02-08T02:01:09.399Z,5.20
2024-02-08T02:06:15.957Z,4.25
2024-02-08T02:11:31.133Z,4.23
2024-02-08T02:16:33.486Z,5.43
2024-02-08T02:21:36.205Z,6.03
2024-02-08T02:26:38.713Z,6.57
2024-02-08T02:31:40.886Z,6.82
2024-02-08T02:36:46.420Z,6.65
2024-02-08T02:41:49.056Z,8.93
2024-02-08T02:46:51.101Z,8.88
2024-02-08T02:51:53.503Z,7.65
2024-02-08T02:56:58.137Z,6.78
2024-02-08T03:02:00.404Z,11.40
2024-02-08T03:07:03.627Z,9.50
2024-02-08T03:12:11.410Z,7.07
2024-02-08T03:17:13.989Z,6.63
2024-02-08T03:22:19.576Z,12.02
2024-02-08T03:27:23.211Z,9.43
2024-02-08T03:32:25.252Z,6.78
2024-02-08T03:37:27.669Z,8.52
2024-02-08T03:42:29.702Z,9.88
2024-02-08T03:47:34.170Z,11.30
2024-02-08T03:52:38.726Z,8.57
2024-02-08T03:57:41.317Z,5.55
2024-02-08T04:02:45.103Z,9.18
2024-02-08T04:08:01.225Z,8.27
2024-02-08T04:13:22.592Z,8.93
2024-02-08T04:18:43.187Z,8.35
2024-02-08T04:24:04.589Z,8.13
2024-02-08T04:29:25.216Z,10.18
2024-02-08T04:34:45.885Z,12.25
2024-02-08T04:40:06.753Z,9.55
2024-02-08T04:45:27.452Z,8.40
2024-02-08T04:50:48.415Z,9.90
2024-02-08T04:55:50.724Z,9.68
2024-02-08T05:00:53.308Z,9.77
2024-02-08T05:05:55.914Z,9.10
2024-02-08T05:10:58.101Z,10.52
2024-02-08T05:16:01.654Z,10.45
2024-02-08T05:21:07.269Z,7.55
2024-02-08T05:26:13.420Z,11.40
2024-02-08T05:31:19.163Z,10.40
2024-02-08T05:36:21.661Z,11.20
2024-02-08T05:41:23.844Z,10.32
2024-02-08T05:46:28.961Z,9.98
2024-02-08T05:51:35.382Z,7.63
2024-02-08T05:56:41.240Z,7.60
2024-02-08T06:01:48.766Z,12.25
2024-02-08T06:12:10.988Z,11.75
2024-02-08T06:17:13.520Z,11.63
2024-02-08T06:22:22.084Z,8.82
2024-02-08T06:27:27.458Z,14.07
2024-02-08T06:32:29.557Z,9.85
2024-02-08T06:37:33.557Z,12.68
2024-02-08T06:42:40.449Z,9.52
2024-02-08T06:48:05.723Z,11.07
2024-02-08T06:53:26.877Z,12.77
2024-02-08T06:58:47.390Z,11.13
2024-02-08T07:04:08.249Z,8.57
2024-02-08T07:09:29.056Z,9.00
2024-02-08T07:14:49.456Z,10.93
2024-02-08T07:20:09.895Z,11.30
2024-02-08T07:25:31.579Z,12.57
2024-02-08T07:30:52.830Z,9.40
2024-02-08T07:36:14.869Z,11.75
2024-02-08T07:41:22.553Z,11.45
2024-02-08T07:46:32.147Z,9.93
2024-02-08T07:51:35.630Z,9.05
2024-02-08T07:56:48.325Z,8.15
2024-02-08T08:01:51.441Z,9.35
2024-02-08T08:07:02.379Z,10.43
2024-02-08T08:12:06.936Z,11.00
2024-02-08T08:17:32.520Z,9.25
2024-02-08T08:22:35.079Z,10.18
2024-02-08T08:27:52.548Z,7.25
2024-02-08T08:33:42.035Z,6.72
2024-02-08T08:39:39.131Z,10.30
2024-02-08T08:44:51.074Z,8.55
2024-02-08T08:49:53.152Z,8.55
2024-02-08T08:55:18.877Z,6.30
2024-02-08T09:00:33.924Z,11.38
2024-02-08T09:05:38.286Z,10.27
2024-02-08T09:10:44.490Z,7.50
2024-02-08T09:15:57.813Z,8.40
2024-02-08T09:21:00.745Z,7.25
2024-02-08T09:26:06.197Z,15.10
2024-02-08T09:31:14.820Z,10.65
2024-02-08T09:36:17.295Z,7.22
2024-02-08T09:41:27.124Z,8.65
2024-02-08T09:46:32.530Z,9.52
2024-02-08T09:51:36.907Z,7.65
2024-02-08T09:56:40.902Z,8.27
2024-02-08T10:01:46.737Z,10.95
2024-02-08T10:06:57.814Z,9.52
2024-02-08T10:12:08.739Z,8.48
2024-02-08T10:17:42.971Z,10.23
2024-02-08T10:22:58.552Z,8.27
2024-02-08T10:28:25.055Z,9.55
2024-02-08T10:33:37.908Z,14.80
2024-02-08T10:44:24.321Z,14.25
2024-02-08T10:49:27.572Z,10.23
2024-02-08T11:01:54.416Z,11.23
2024-02-08T11:18:49.755Z,11.43
2024-02-08T11:23:58.575Z,13.07
2024-02-08T11:30:06.433Z,11.50
2024-02-08T11:35:22.417Z,12.38
2024-02-08T11:40:31.167Z,12.75
2024-02-08T11:45:37.712Z,11.98
2024-02-08T11:50:41.260Z,11.80
2024-02-08T11:55:48.820Z,12.45
2024-02-08T12:00:51.919Z,10.80
2024-02-08T12:06:02.589Z,11.13
2024-02-08T12:11:05.077Z,11.98
2024-02-08T12:16:07.916Z,12.02
2024-02-08T12:21:19.289Z,11.70
2024-02-08T12:26:40.372Z,14.48
2024-02-08T12:31:47.124Z,11.68
2024-02-08T12:36:49.453Z,9.50
2024-02-08T12:41:55.734Z,11.75
2024-02-08T12:46:58.197Z,12.48
2024-02-08T12:52:04.588Z,9.60
2024-02-08T12:57:11.823Z,12.40
2024-02-08T13:02:20.420Z,11.93
2024-02-08T13:07:27.144Z,11.35
2024-02-08T13:13:25.575Z,11.07
2024-02-08T13:18:31.581Z,7.97
2024-02-08T13:23:42.567Z,7.82
2024-02-08T13:28:44.746Z,7.38
2024-02-08T13:33:47.049Z,10.18
2024-02-08T13:38:51.040Z,7.55
2024-02-08T13:43:53.285Z,7.00
2024-02-08T13:48:55.687Z,11.23
2024-02-08T13:53:57.802Z,7.75
2024-02-08T13:59:02.072Z,10.55
2024-02-08T14:04:07.744Z,8.55
2024-02-08T14:09:30.124Z,10.25
2024-02-08T14:14:41.782Z,8.68
2024-02-08T14:19:46.811Z,10.88
2024-02-08T14:24:52.509Z,8.30
2024-02-08T14:29:54.611Z,7.97
2024-02-08T14:40:44.764Z,7.20
2024-02-08T14:45:46.765Z,7.00
2024-02-08T14:50:54.460Z,8.05
2024-02-08T14:55:56.549Z,11.73
2024-02-08T15:01:09.039Z,12.18
2024-02-08T15:06:31.504Z,10.88
2024-02-08T15:11:51.455Z,11.50
2024-02-08T15:16:53.494Z,12.60
2024-02-08T15:21:55.928Z,11.25
2024-02-08T15:27:07.187Z,14.82
2024-02-08T15:32:19.422Z,12.40
2024-02-08T15:37:29.594Z,12.75
2024-02-08T15:42:37.172Z,11.48
2024-02-08T15:47:57.026Z,14.63
2024-02-08T15:53:10.886Z,11.95
2024-02-08T15:58:27.776Z,10.95
2024-02-08T16:03:30.219Z,12.73
2024-02-08T16:08:36.908Z,14.27
2024-02-08T16:13:54.655Z,11.37
2024-02-08T16:19:15.728Z,15.63
2024-02-08T16:24:20.804Z,13.82
2024-02-08T16:29:35.873Z,13.45
2024-02-08T16:34:52.201Z,12.38
2024-02-08T16:40:09.213Z,9.43
2024-02-08T16:45:19.330Z,17.27
2024-02-08T16:50:36.142Z,12.07
2024-02-08T16:55:39.128Z,14.63
2024-02-08T17:00:49.594Z,15.25
2024-02-08T17:05:55.546Z,15.18
2024-02-08T17:11:03.036Z,13.70
2024-02-08T17:16:25.684Z,11.15
2024-02-08T17:21:46.499Z,13.65
2024-02-08T17:27:00.971Z,10.80
2024-02-08T17:32:14.363Z,11.10
2024-02-08T17:37:19.660Z,12.50
2024-02-08T17:42:22.042Z,10.68
2024-02-08T17:47:30.149Z,11.90
2024-02-08T17:52:39.158Z,10.55
2024-02-08T17:57:43.457Z,9.88
2024-02-08T18:02:46.012Z,9.95
2024-02-08T18:07:48.613Z,9.02
2024-02-08T18:12:56.729Z,10.18
2024-02-08T18:18:06.361Z,9.13
2024-02-08T18:23:08.493Z,9.00
2024-02-08T18:28:11.181Z,11.30
2024-02-08T18:33:16.861Z,9.95
2024-02-08T18:38:24.684Z,8.50
2024-02-08T18:48:35.656Z,11.40
2024-02-08T18:53:42.303Z,11.13
2024-02-08T18:58:44.307Z,10.15
2024-02-08T19:03:47.979Z,8.48
2024-02-08T19:08:54.040Z,7.55
2024-02-08T19:13:58.351Z,8.65
2024-02-08T19:19:02.730Z,12.85
2024-02-08T19:24:08.722Z,9.70
2024-02-08T19:29:16.900Z,9.52
2024-02-08T19:34:22.375Z,10.18
2024-02-08T19:39:38.133Z,9.65
2024-02-08T19:44:43.872Z,9.25
2024-02-08T19:49:47.877Z,9.73
2024-02-08T19:54:51.561Z,11.65
2024-02-08T19:59:55.250Z,14.05
2024-02-08T20:05:02.870Z,13.18
2024-02-08T20:15:22.316Z,19.45
2024-02-08T20:20:24.759Z,21.50
2024-02-08T20:25:35.210Z,12.32
2024-02-08T20:30:40.050Z,30.80
2024-02-08T20:35:43.663Z,39.08
2024-02-08T20:40:47.703Z,38.35
2024-02-08T20:45:56.012Z,51.53
2024-02-08T20:51:00.839Z,31.60
2024-02-08T20:56:05.134Z,20.10
2024-02-08T21:01:12.331Z,31.15
2024-02-08T21:06:14.807Z,44.92
2024-02-08T21:11:19.008Z,14.75
2024-02-08T21:16:22.953Z,13.65
2024-02-08T21:21:25.049Z,7.80
2024-02-08T21:26:27.958Z,6.25
2024-02-08T21:31:31.161Z,8.63
2024-02-08T21:36:37.110Z,6.63
2024-02-08T21:41:42.979Z,10.95
2024-02-08T21:46:45.062Z,6.93
2024-02-08T21:51:48.154Z,8.25
2024-02-08T21:56:50.108Z,5.05
2024-02-08T22:01:54.691Z,8.82
2024-02-08T22:06:57.908Z,7.53
2024-02-08T22:12:00.750Z,8.55
2024-02-08T22:17:10.040Z,20.02
2024-02-08T22:22:15.084Z,15.15
2024-02-08T22:27:19.741Z,11.85
2024-02-08T22:32:21.758Z,28.58
2024-02-08T22:37:23.725Z,13.35
2024-02-08T22:42:25.656Z,30.83
2024-02-08T22:47:28.757Z,31.48
2024-02-08T22:52:31.992Z,95.35
2024-02-08T22:57:37.276Z,45.25
2024-02-08T23:02:39.241Z,16.13
2024-02-08T23:07:45.636Z,39.47
2024-02-08T23:12:49.218Z,31.75
2024-02-08T23:17:58.787Z,16.10
2024-02-08T23:23:03.487Z,22.23
2024-02-08T23:28:07.990Z,24.75
2024-02-08T23:33:14.059Z,10.88
2024-02-08T23:38:20.447Z,17.45
2024-02-08T23:43:23.111Z,14.45
2024-02-08T23:48:27.526Z,10.77
2024-02-08T23:53:32.786Z,8.32
2024-02-08T23:58:34.883Z,11.73
